Time;durP1;ratioP1;P1;durP2;ratioP2;P2;SDS_P1;SDS_P2;PMS_P1;PMS_P2;Temp;Humidity;BMP_temperature;BMP_pressure;BME280_temperature;BME280_humidity;BME280_pressure;Samples;Min_cycle;Max_cycle;Signal;HPM_P1;HPM_P2
2023/10/16 00:01:38;;;;;;;1.85;0.10;;;7.80;99.90;;;;;;5054203;28;20519;-33
2023/10/16 00:04:07;;;;;;;1.40;0.10;;;7.80;99.90;;;;;;5056446;28;20040;-33
2023/10/16 00:06:34;;;;;;;2.40;0.30;;;7.90;99.90;;;;;;5059182;28;20109;-33
2023/10/16 00:09:10;;;;;;;1.48;0.20;;;7.90;99.90;;;;;;5049877;28;20107;-33
2023/10/16 00:11:37;;;;;;;1.50;0.30;;;7.90;99.90;;;;;;5046822;28;20048;-33
2023/10/16 00:14:13;;;;;;;2.22;0.30;;;8.00;99.90;;;;;;5062048;28;20055;-35
2023/10/16 00:16:39;;;;;;;1.30;0.20;;;7.90;99.90;;;;;;5054836;28;20045;-34
2023/10/16 00:19:09;;;;;;;0.50;0.17;;;7.90;99.90;;;;;;5057316;28;20662;-33
2023/10/16 00:21:43;;;;;;;3.47;0.30;;;7.90;99.90;;;;;;5064219;28;20082;-44
2023/10/16 00:24:12;;;;;;;2.30;0.20;;;7.80;99.90;;;;;;5054517;28;20110;-33
2023/10/16 00:26:45;;;;;;;4.53;0.68;;;7.80;99.90;;;;;;5069467;28;20087;-33
2023/10/16 00:29:23;;;;;;;1.27;0.30;;;7.80;99.90;;;;;;5080942;28;20080;-33
2023/10/16 00:31:51;;;;;;;2.88;0.40;;;7.80;99.90;;;;;;5072245;28;20051;-33
2023/10/16 00:34:21;;;;;;;1.88;0.40;;;7.80;99.90;;;;;;5047712;28;20071;-33
2023/10/16 00:36:47;;;;;;;2.53;0.50;;;7.70;99.90;;;;;;5071279;28;20059;-33
2023/10/16 00:39:13;;;;;;;3.22;0.60;;;7.70;99.90;;;;;;5075611;28;20054;-33
2023/10/16 00:41:43;;;;;;;3.08;0.70;;;7.70;99.90;;;;;;5073714;28;20044;-33
2023/10/16 00:44:09;;;;;;;3.28;0.90;;;7.70;99.90;;;;;;5074012;28;20134;-33
2023/10/16 00:46:38;;;;;;;2.38;0.85;;;7.70;99.90;;;;;;5070271;28;20197;-33
2023/10/16 00:49:05;;;;;;;2.55;0.82;;;7.70;99.90;;;;;;5070466;28;20072;-34
2023/10/16 00:51:33;;;;;;;4.72;0.90;;;7.70;99.90;;;;;;5066796;28;20056;-33
2023/10/16 00:53:59;;;;;;;4.45;1.70;;;7.70;99.90;;;;;;5072497;28;20096;-33
2023/10/16 00:56:29;;;;;;;3.83;0.95;;;7.60;99.90;;;;;;5072552;28;20113;-33
2023/10/16 00:58:57;;;;;;;2.78;0.82;;;7.70;99.90;;;;;;5072231;28;20036;-33
2023/10/16 01:01:26;;;;;;;2.85;0.90;;;7.70;99.90;;;;;;5069783;28;20450;-33
2023/10/16 01:03:57;;;;;;;4.18;0.95;;;7.70;99.90;;;;;;5058907;28;20052;-33
2023/10/16 01:06:40;;;;;;;4.05;1.00;;;7.70;99.90;;;;;;5066501;28;20055;-33
2023/10/16 01:09:17;;;;;;;4.97;1.35;;;7.70;99.90;;;;;;5069455;28;20501;-33
2023/10/16 01:11:43;;;;;;;3.53;1.65;;;7.70;99.90;;;;;;5067459;28;20479;-33
2023/10/16 01:14:12;;;;;;;2.55;1.17;;;7.70;99.90;;;;;;5054794;28;20048;-34
2023/10/16 01:16:38;;;;;;;4.10;1.20;;;7.70;99.90;;;;;;5071408;28;20076;-33
2023/10/16 01:19:06;;;;;;;4.22;1.10;;;7.70;99.90;;;;;;5079593;28;20086;-33
2023/10/16 01:21:32;;;;;;;2.95;1.10;;;7.60;99.90;;;;;;5073910;28;20053;-33
2023/10/16 01:24:12;;;;;;;5.30;1.25;;;7.60;99.90;;;;;;5063289;28;20067;-34
2023/10/16 01:26:40;;;;;;;4.93;1.40;;;7.70;99.90;;;;;;5047421;28;20052;-33
2023/10/16 01:29:08;;;;;;;4.47;1.50;;;7.60;99.90;;;;;;5052096;28;20049;-33
2023/10/16 01:31:36;;;;;;;5.95;1.45;;;7.60;99.90;;;;;;5048829;28;20064;-33
2023/10/16 01:34:02;;;;;;;2.83;0.88;;;7.60;99.90;;;;;;5066814;28;20451;-33
2023/10/16 01:36:30;;;;;;;2.55;1.13;;;7.60;99.90;;;;;;5043470;28;20049;-33
2023/10/16 01:38:59;;;;;;;2.90;1.33;;;7.60;99.90;;;;;;5059813;28;20045;-33
2023/10/16 01:41:25;;;;;;;3.65;1.35;;;7.60;99.90;;;;;;5055379;28;20060;-35
2023/10/16 01:43:52;;;;;;;3.80;1.08;;;7.60;99.90;;;;;;5054972;28;20399;-34
2023/10/16 01:46:18;;;;;;;5.00;1.30;;;7.60;99.90;;;;;;5062387;28;20064;-33
2023/10/16 01:48:46;;;;;;;4.40;1.00;;;7.60;99.90;;;;;;5062194;28;20052;-33
2023/10/16 01:51:18;;;;;;;3.95;1.15;;;7.70;99.90;;;;;;5041044;28;20055;-33
2023/10/16 01:53:43;;;;;;;2.70;1.00;;;7.70;99.90;;;;;;5058112;28;20086;-37
2023/10/16 01:56:12;;;;;;;4.93;1.20;;;7.70;99.90;;;;;;5060108;28;20070;-33
2023/10/16 01:58:42;;;;;;;2.90;1.10;;;7.70;99.90;;;;;;5061423;28;20044;-33
2023/10/16 02:01:16;;;;;;;2.83;0.90;;;7.70;99.90;;;;;;5044525;28;20055;-33
2023/10/16 02:03:47;;;;;;;3.72;1.17;;;7.80;99.90;;;;;;5043004;28;20052;-33
2023/10/16 02:06:17;;;;;;;3.95;1.60;;;7.80;99.90;;;;;;5063090;28;20056;-36
2023/10/16 02:08:45;;;;;;;3.45;1.17;;;7.80;99.90;;;;;;5053473;28;20118;-33
2023/10/16 02:11:11;;;;;;;3.10;1.00;;;7.80;99.90;;;;;;5060402;28;20044;-33
2023/10/16 02:13:41;;;;;;;4.18;1.20;;;7.90;99.90;;;;;;5055098;28;20490;-33
2023/10/16 02:16:12;;;;;;;2.55;0.80;;;7.90;99.90;;;;;;5051539;28;20480;-33
2023/10/16 02:18:41;;;;;;;4.03;0.93;;;7.90;99.90;;;;;;5059875;28;20474;-33
2023/10/16 02:21:11;;;;;;;3.60;1.30;;;7.90;99.90;;;;;;5061752;28;20056;-33
2023/10/16 02:23:45;;;;;;;3.35;1.02;;;7.90;99.90;;;;;;5064405;28;20106;-33
2023/10/16 02:26:12;;;;;;;2.60;0.93;;;7.90;99.90;;;;;;5065180;28;20486;-33
2023/10/16 02:28:41;;;;;;;5.53;1.40;;;7.90;99.90;;;;;;5064776;28;20045;-33
2023/10/16 02:31:14;;;;;;;3.25;0.98;;;7.80;99.90;;;;;;5063418;28;20575;-33
2023/10/16 02:33:46;;;;;;;4.13;0.95;;;7.80;99.90;;;;;;5065975;28;20047;-33
2023/10/16 02:36:15;;;;;;;4.80;1.00;;;7.80;99.90;;;;;;5066648;28;20576;-33
2023/10/16 02:38:44;;;;;;;2.70;0.85;;;7.80;99.90;;;;;;5066029;28;20044;-33
2023/10/16 02:41:10;;;;;;;2.70;0.60;;;7.80;99.90;;;;;;5067370;28;20048;-33
2023/10/16 02:43:37;;;;;;;3.97;0.90;;;7.80;99.90;;;;;;5064898;28;20052;-33
2023/10/16 02:46:04;;;;;;;2.13;0.80;;;7.80;99.90;;;;;;5065559;28;20048;-34
2023/10/16 02:48:30;;;;;;;4.13;0.93;;;7.80;99.90;;;;;;5063793;28;20044;-33
2023/10/16 02:50:59;;;;;;;2.28;0.70;;;7.80;99.90;;;;;;5067788;28;20056;-33
2023/10/16 02:53:29;;;;;;;4.50;0.70;;;7.80;99.90;;;;;;5062785;28;20048;-33
2023/10/16 02:56:14;;;;;;;1.90;0.60;;;7.80;99.90;;;;;;5066885;28;20048;-34
2023/10/16 02:58:46;;;;;;;2.15;0.75;;;7.80;99.90;;;;;;5063207;28;20052;-33
2023/10/16 03:01:22;;;;;;;2.35;0.60;;;7.80;99.90;;;;;;5045026;28;20057;-34
2023/10/16 03:03:50;;;;;;;3.10;0.70;;;7.80;99.90;;;;;;5045382;28;20059;-34
2023/10/16 03:06:18;;;;;;;4.63;0.60;;;7.80;99.90;;;;;;5065905;28;20510;-34
2023/10/16 03:08:50;;;;;;;4.13;0.60;;;7.90;99.90;;;;;;5047337;28;20047;-33
2023/10/16 03:11:17;;;;;;;3.67;0.50;;;7.90;99.90;;;;;;5069297;28;20052;-33
2023/10/16 03:13:43;;;;;;;2.25;0.50;;;7.90;99.90;;;;;;5065178;28;20056;-33
2023/10/16 03:18:43;;;;;;;;;;;7.90;99.90;;;;;;5067215;28;20048;-33
2023/10/16 03:23:44;;;;;;;3.10;0.70;;;7.90;99.90;;;;;;5064039;28;20139;-33
2023/10/16 03:26:25;;;;;;;4.35;0.47;;;7.90;99.90;;;;;;5065624;28;20044;-34
2023/10/16 03:28:56;;;;;;;2.37;0.53;;;7.90;99.90;;;;;;5065168;28;20155;-34
2023/10/16 03:31:22;;;;;;;3.15;0.65;;;7.90;99.90;;;;;;5067256;28;20956;-34
2023/10/16 03:33:53;;;;;;;4.15;0.60;;;7.80;99.90;;;;;;5063359;28;22277;-40
2023/10/16 03:36:19;;;;;;;2.88;0.60;;;7.80;99.90;;;;;;5045517;28;20078;-33
2023/10/16 03:38:45;;;;;;;1.98;0.52;;;7.80;99.90;;;;;;5061364;28;20506;-33
2023/10/16 03:44:13;;;;;;;2.08;0.55;;;7.80;99.90;;;;;;5058810;28;20040;-33
2023/10/16 03:46:42;;;;;;;4.82;0.90;;;7.80;99.90;;;;;;5063154;28;20044;-33
2023/10/16 03:49:08;;;;;;;2.90;0.68;;;7.80;99.90;;;;;;5064840;28;20056;-33
2023/10/16 03:51:34;;;;;;;2.65;0.60;;;7.70;99.90;;;;;;5046806;28;20040;-33
2023/10/16 03:54:02;;;;;;;1.85;0.50;;;7.80;99.90;;;;;;5067399;28;20057;-33
2023/10/16 03:56:30;;;;;;;3.70;0.73;;;7.80;99.90;;;;;;5062488;28;20057;-33
2023/10/16 03:58:57;;;;;;;3.33;0.70;;;7.80;99.90;;;;;;5070563;28;20067;-33
2023/10/16 04:01:27;;;;;;;3.65;0.93;;;7.80;99.90;;;;;;5029258;28;20144;-33
2023/10/16 04:03:58;;;;;;;2.25;0.50;;;7.80;99.90;;;;;;5045909;28;20521;-34
2023/10/16 04:06:26;;;;;;;2.28;0.50;;;7.80;99.90;;;;;;5063359;28;20109;-33
2023/10/16 04:08:55;;;;;;;3.35;0.55;;;7.70;99.90;;;;;;5066526;28;20048;-33
2023/10/16 04:11:25;;;;;;;2.35;0.60;;;7.70;99.90;;;;;;5063535;28;20510;-33
2023/10/16 04:13:52;;;;;;;3.42;0.70;;;7.70;99.90;;;;;;5061403;28;20055;-33
2023/10/16 04:22:08;;;;;;;3.28;0.90;;;7.70;99.90;;;;;;5063785;28;20047;-33
2023/10/16 04:24:40;;;;;;;2.33;0.80;;;7.70;99.90;;;;;;5058758;28;20059;-33
2023/10/16 04:30:32;;;;;;;3.00;0.80;;;7.60;99.90;;;;;;5054621;28;20109;-33
2023/10/16 04:38:27;;;;;;;3.85;0.70;;;7.60;99.90;;;;;;5017653;28;20079;-33
2023/10/16 04:43:51;;;;;;;3.45;0.90;;;7.60;99.90;;;;;;5059023;28;20111;-33
2023/10/16 04:46:20;;;;;;;3.90;0.63;;;7.70;99.90;;;;;;5042476;28;20052;-33
2023/10/16 04:48:54;;;;;;;4.13;1.00;;;7.60;99.90;;;;;;5064371;28;20044;-33
2023/10/16 04:51:26;;;;;;;3.53;0.70;;;7.60;99.90;;;;;;5061497;28;20139;-33
2023/10/16 04:54:13;;;;;;;5.00;1.02;;;7.60;99.90;;;;;;5065272;28;20588;-34
2023/10/16 04:57:03;;;;;;;4.28;0.80;;;7.50;99.90;;;;;;5063144;28;20131;-33
2023/10/16 04:59:37;;;;;;;3.63;0.75;;;7.50;99.90;;;;;;5065156;28;20061;-33
2023/10/16 05:02:33;;;;;;;5.97;0.85;;;7.60;99.90;;;;;;5063882;28;20083;-33
2023/10/16 05:07:53;;;;;;;4.28;1.05;;;7.60;99.90;;;;;;5058895;28;20052;-33
2023/10/16 05:18:48;;;;;;;3.97;0.75;;;7.70;99.90;;;;;;5060304;28;20056;-34
2023/10/16 06:14:09;;;;;;;2.67;0.90;;;7.80;99.90;;;;;;5051303;28;20049;-35
2023/10/16 06:16:18;;;;;;;4.85;1.27;;;7.80;99.90;;;;;;5059334;28;20053;-33
2023/10/16 06:18:45;;;;;;;3.22;1.33;;;7.80;99.90;;;;;;5055928;28;20538;-34
2023/10/16 06:21:14;;;;;;;2.67;1.13;;;7.80;99.90;;;;;;5057109;28;20501;-33
2023/10/16 06:23:48;;;;;;;5.35;1.73;;;7.80;99.90;;;;;;5066436;28;20032;-33
2023/10/16 06:26:15;;;;;;;3.75;1.52;;;7.90;99.90;;;;;;5075261;28;20057;-34
2023/10/16 06:28:51;;;;;;;2.05;0.98;;;7.90;99.90;;;;;;5086627;28;20095;-33
2023/10/16 06:31:23;;;;;;;2.47;1.20;;;7.90;99.90;;;;;;5086036;28;20053;-33
2023/10/16 06:33:53;;;;;;;4.90;1.65;;;8.00;99.90;;;;;;5076864;28;20550;-33
2023/10/16 06:36:20;;;;;;;4.40;1.50;;;8.00;99.90;;;;;;5078071;28;20119;-33
2023/10/16 06:38:51;;;;;;;4.38;1.52;;;8.00;99.90;;;;;;5082821;28;20135;-33
2023/10/16 06:41:17;;;;;;;6.57;1.58;;;8.00;99.90;;;;;;5079019;28;20137;-34
2023/10/16 06:43:43;;;;;;;5.30;1.65;;;8.10;99.90;;;;;;5081358;28;20099;-33
2023/10/16 06:46:11;;;;;;;6.68;1.70;;;8.10;99.90;;;;;;5065917;28;20055;-44
2023/10/16 06:48:37;;;;;;;4.03;1.45;;;8.10;99.90;;;;;;5074363;28;21721;-34
2023/10/16 06:51:14;;;;;;;5.40;1.75;;;8.10;99.90;;;;;;5072752;28;20146;-33
2023/10/16 06:53:40;;;;;;;8.07;1.80;;;8.20;99.90;;;;;;5084210;28;20048;-33
2023/10/16 06:56:06;;;;;;;4.22;1.50;;;8.20;99.90;;;;;;5086560;28;20511;-33
2023/10/16 06:58:34;;;;;;;5.80;1.73;;;8.20;99.90;;;;;;5086728;28;20074;-34
2023/10/16 07:01:01;;;;;;;4.93;1.60;;;8.20;99.90;;;;;;5080847;28;20151;-33
2023/10/16 07:03:28;;;;;;;6.18;1.45;;;8.30;99.90;;;;;;5083639;28;20079;-33
2023/10/16 07:05:54;;;;;;;5.45;1.55;;;8.30;99.90;;;;;;5080106;28;20048;-34
2023/10/16 07:08:20;;;;;;;3.85;1.60;;;8.40;99.90;;;;;;5082556;28;20052;-38
2023/10/16 07:10:52;;;;;;;3.38;1.52;;;8.50;99.90;;;;;;5072439;28;20052;-34
2023/10/16 07:13:28;;;;;;;4.60;1.70;;;8.50;99.90;;;;;;5080474;28;20136;-33
2023/10/16 07:16:00;;;;;;;4.40;1.52;;;8.50;99.90;;;;;;5073086;28;20056;-33
2023/10/16 07:18:27;;;;;;;6.63;1.50;;;8.60;99.90;;;;;;5080139;28;20078;-33
2023/10/16 07:21:00;;;;;;;5.63;1.38;;;8.70;99.90;;;;;;5053717;28;20143;-33
2023/10/16 07:23:34;;;;;;;4.13;1.23;;;8.70;99.90;;;;;;5077614;28;20044;-33
2023/10/16 07:26:09;;;;;;;3.85;1.20;;;8.80;99.90;;;;;;5074360;28;20060;-33
2023/10/16 07:28:36;;;;;;;4.63;1.30;;;8.80;99.90;;;;;;5074738;28;20049;-33
2023/10/16 07:31:10;;;;;;;5.05;1.67;;;8.80;99.90;;;;;;5075736;28;20058;-33
2023/10/16 07:33:35;;;;;;;5.13;1.38;;;8.80;99.90;;;;;;5065639;28;20197;-34
2023/10/16 07:36:01;;;;;;;4.82;1.20;;;8.90;99.90;;;;;;5082034;28;20051;-33
2023/10/16 07:38:28;;;;;;;3.65;1.35;;;8.90;99.90;;;;;;5085350;28;20052;-34
2023/10/16 07:40:54;;;;;;;5.97;1.02;;;8.90;99.90;;;;;;5086614;28;20740;-34
2023/10/16 07:43:28;;;;;;;3.63;1.42;;;8.90;99.90;;;;;;5091148;28;20047;-34
2023/10/16 07:46:15;;;;;;;4.45;1.40;;;8.90;99.90;;;;;;5075378;28;20045;-33
2023/10/16 07:48:52;;;;;;;3.63;1.33;;;8.90;99.90;;;;;;5079013;28;20055;-34
2023/10/16 07:51:20;;;;;;;2.90;0.90;;;9.00;99.90;;;;;;5089741;28;20093;-34
2023/10/16 07:53:50;;;;;;;2.63;1.10;;;9.10;99.90;;;;;;5085107;28;20577;-34
2023/10/16 07:56:25;;;;;;;3.85;0.90;;;9.10;99.90;;;;;;5082383;28;20192;-34
2023/10/16 07:58:56;;;;;;;3.47;1.00;;;9.20;99.90;;;;;;5086129;28;20049;-35
2023/10/16 08:01:32;;;;;;;3.40;1.02;;;9.30;99.90;;;;;;5072547;28;20089;-34
2023/10/16 08:04:01;;;;;;;4.35;0.95;;;9.40;99.90;;;;;;5079949;28;20089;-34
2023/10/16 08:06:28;;;;;;;3.55;0.90;;;9.40;99.90;;;;;;5060463;28;20097;-34
2023/10/16 08:11:44;;;;;;;3.55;0.90;;;9.50;99.90;;;;;;5069914;28;20048;-34
2023/10/16 08:14:10;;;;;;;4.75;0.90;;;9.50;99.90;;;;;;5071259;28;20059;-33
2023/10/16 08:16:39;;;;;;;2.60;1.08;;;9.50;99.90;;;;;;5074374;28;20052;-34
2023/10/16 08:19:14;;;;;;;3.95;1.30;;;9.60;99.90;;;;;;5087564;28;20063;-34
2023/10/16 08:21:42;;;;;;;3.25;0.70;;;9.70;99.90;;;;;;5082033;28;20493;-34
2023/10/16 08:24:13;;;;;;;5.55;0.88;;;9.70;99.90;;;;;;5085636;28;20051;-34
2023/10/16 08:26:43;;;;;;;4.10;0.80;;;9.70;99.90;;;;;;5080565;28;20098;-32
2023/10/16 08:29:13;;;;;;;3.72;0.60;;;9.80;99.90;;;;;;5079080;28;20398;-34
2023/10/16 08:32:43;;;;;;;4.13;0.75;;;9.80;99.90;;;;;;5069811;28;20055;-33
2023/10/16 08:34:40;;;;;;;2.72;0.50;;;9.90;99.90;;;;;;5079203;28;20509;-37
2023/10/16 08:37:08;;;;;;;1.80;0.80;;;9.90;99.90;;;;;;5073318;28;20051;-33
2023/10/16 08:39:40;;;;;;;1.73;0.40;;;10.00;99.90;;;;;;5075746;28;20071;-34
2023/10/16 08:42:19;;;;;;;2.33;0.50;;;10.00;99.90;;;;;;5062411;28;20059;-33
2023/10/16 08:44:51;;;;;;;2.97;0.50;;;10.10;99.90;;;;;;5069078;28;20132;-33
2023/10/16 08:47:24;;;;;;;2.10;0.45;;;10.20;99.90;;;;;;5082782;28;20139;-33
2023/10/16 08:49:54;;;;;;;2.90;0.75;;;10.30;99.90;;;;;;5079535;28;20949;-33
2023/10/16 08:52:21;;;;;;;3.45;0.50;;;10.30;99.90;;;;;;5083986;28;20128;-33
2023/10/16 08:57:25;;;;;;;2.38;0.63;;;10.50;99.90;;;;;;5080620;28;20218;-33
2023/10/16 08:59:52;;;;;;;2.65;0.70;;;10.50;99.90;;;;;;5075912;28;20055;-33
2023/10/16 09:02:21;;;;;;;4.15;0.88;;;10.60;99.90;;;;;;5086007;28;20055;-33
2023/10/16 09:04:52;;;;;;;4.53;1.30;;;10.60;99.90;;;;;;5076308;28;20405;-33
2023/10/16 09:07:19;;;;;;;4.60;1.00;;;10.60;99.90;;;;;;5074043;28;20055;-37
2023/10/16 09:09:48;;;;;;;4.55;1.50;;;10.60;99.90;;;;;;5072971;28;20058;-33
2023/10/16 09:12:26;;;;;;;4.35;1.58;;;10.70;99.90;;;;;;5068535;28;20304;-33
2023/10/16 09:14:52;;;;;;;3.97;1.20;;;10.70;99.90;;;;;;5073855;28;20048;-33
2023/10/16 09:17:19;;;;;;;3.35;1.20;;;10.80;99.90;;;;;;5078176;28;20051;-34
2023/10/16 09:19:48;;;;;;;2.55;0.90;;;10.80;99.90;;;;;;5078810;28;20052;-33
2023/10/16 09:22:15;;;;;;;4.05;0.98;;;10.80;99.90;;;;;;5073438;28;20043;-34
2023/10/16 09:24:45;;;;;;;3.58;0.75;;;10.90;99.90;;;;;;5059328;28;20048;-33
2023/10/16 09:27:18;;;;;;;2.22;0.85;;;10.90;99.90;;;;;;5056798;28;20501;-34
2023/10/16 09:29:53;;;;;;;2.50;0.93;;;11.00;99.90;;;;;;5056556;28;20452;-33
2023/10/16 09:32:26;;;;;;;2.58;1.00;;;11.10;99.90;;;;;;5055416;28;20519;-33
2023/10/16 09:35:04;;;;;;;;;;;11.10;99.90;;;;;;5045080;28;20072;-34
2023/10/16 09:37:34;;;;;;;2.45;0.85;;;11.20;99.90;;;;;;5043473;28;19924;-33
2023/10/16 09:40:24;;;;;;;2.65;0.85;;;11.30;99.90;;;;;;5057262;28;20164;-34
2023/10/16 09:42:56;;;;;;;2.90;1.00;;;11.40;99.90;;;;;;5053894;28;20641;-33
2023/10/16 09:45:25;;;;;;;3.40;0.77;;;11.50;99.90;;;;;;5060358;28;20075;-33
2023/10/16 09:47:57;;;;;;;2.80;0.70;;;11.60;99.90;;;;;;5046843;28;20522;-36
2023/10/16 09:50:24;;;;;;;3.65;0.50;;;11.70;99.90;;;;;;5048961;28;20168;-34
2023/10/16 09:52:49;;;;;;;4.93;0.50;;;11.80;99.90;;;;;;5046558;28;20052;-34
2023/10/16 09:55:18;;;;;;;3.28;0.30;;;11.90;99.90;;;;;;5061236;28;20138;-34
2023/10/16 09:57:54;;;;;;;3.00;0.40;;;12.00;99.90;;;;;;5060605;28;20056;-34
2023/10/16 10:00:28;;;;;;;1.90;0.40;;;12.10;99.90;;;;;;5055342;28;20576;-34
2023/10/16 10:03:05;;;;;;;3.03;0.35;;;12.20;99.90;;;;;;5043974;28;20049;-34
2023/10/16 10:06:08;;;;;;;2.28;0.40;;;12.20;99.90;;;;;;5047782;28;20143;-34
2023/10/16 10:11:38;;;;;;;1.45;0.22;;;12.30;99.90;;;;;;5065730;28;20253;-36
2023/10/16 10:16:56;;;;;;;2.30;0.20;;;12.50;99.90;;;;;;5049603;28;20052;-34
2023/10/16 10:19:35;;;;;;;2.67;0.30;;;12.60;99.90;;;;;;5054388;28;20166;-33
2023/10/16 10:22:06;;;;;;;4.60;0.40;;;12.70;99.90;;;;;;5058967;28;20521;-35
2023/10/16 10:24:39;;;;;;;1.45;0.30;;;12.80;99.90;;;;;;5061111;28;20557;-35
2023/10/16 10:27:11;;;;;;;2.20;0.22;;;12.90;99.90;;;;;;5054680;28;20063;-43
2023/10/16 10:29:42;;;;;;;3.95;0.30;;;13.00;99.90;;;;;;5060798;28;20051;-34
2023/10/16 10:32:12;;;;;;;5.07;0.45;;;13.20;99.90;;;;;;5057830;28;20491;-34
2023/10/16 10:34:38;;;;;;;2.53;1.00;;;13.30;99.90;;;;;;5062598;28;20048;-34
2023/10/16 10:37:41;;;;;;;2.80;0.40;;;13.40;99.90;;;;;;5058720;28;20147;-34
2023/10/16 10:40:21;;;;;;;2.58;0.28;;;13.30;99.90;;;;;;5056619;28;20148;-33
2023/10/16 10:42:53;;;;;;;3.58;0.30;;;13.40;99.90;;;;;;5039927;28;20056;-46
2023/10/16 10:45:33;;;;;;;0.83;0.20;;;13.50;99.90;;;;;;5056909;28;20047;-34
2023/10/16 10:48:24;;;;;;;1.77;0.20;;;13.50;99.90;;;;;;5057510;28;20045;-34
2023/10/16 10:50:50;;;;;;;3.13;0.40;;;13.60;99.90;;;;;;5058046;28;20060;-33
2023/10/16 10:53:16;;;;;;;5.53;0.43;;;13.70;99.90;;;;;;5059978;28;20057;-35
2023/10/16 10:55:56;;;;;;;3.03;0.32;;;13.80;99.90;;;;;;5069905;28;20072;-35
2023/10/16 10:58:25;;;;;;;1.98;0.30;;;13.90;99.90;;;;;;5043678;28;20093;-34
2023/10/16 11:00:50;;;;;;;4.30;0.40;;;14.10;99.90;;;;;;5056720;28;20418;-34
2023/10/16 11:03:22;;;;;;;2.28;0.40;;;14.20;99.90;;;;;;5064711;28;20498;-34
2023/10/16 11:05:49;;;;;;;2.03;0.50;;;14.10;99.90;;;;;;5060383;28;20044;-34
2023/10/16 11:10:46;;;;;;;1.67;0.43;;;14.10;99.90;;;;;;5062997;28;20537;-34
2023/10/16 11:13:14;;;;;;;2.38;0.30;;;14.20;99.90;;;;;;5061021;28;20040;-34
2023/10/16 11:15:52;;;;;;;3.92;0.75;;;14.20;99.90;;;;;;5066447;28;20037;-34
2023/10/16 11:18:19;;;;;;;3.35;0.30;;;14.20;99.90;;;;;;5060728;28;20950;-35
2023/10/16 11:20:49;;;;;;;2.28;0.50;;;14.10;99.90;;;;;;5065753;28;20041;-35
2023/10/16 11:23:17;;;;;;;3.88;0.47;;;14.10;99.90;;;;;;5059948;28;20120;-34
2023/10/16 11:25:45;;;;;;;1.65;0.22;;;14.00;99.90;;;;;;5065468;28;20102;-34
2023/10/16 11:28:22;;;;;;;4.40;0.40;;;13.90;99.90;;;;;;5064793;28;20045;-35
2023/10/16 11:30:55;;;;;;;2.92;0.30;;;13.70;99.90;;;;;;5061469;28;20498;-35
2023/10/16 11:33:34;;;;;;;4.88;0.50;;;13.60;99.90;;;;;;5060596;28;20053;-34
2023/10/16 11:36:04;;;;;;;2.35;0.40;;;13.50;99.90;;;;;;5066974;28;20052;-34
2023/10/16 11:38:32;;;;;;;5.15;1.15;;;13.40;99.90;;;;;;5064216;28;20494;-34
2023/10/16 11:41:04;;;;;;;3.95;0.35;;;13.30;99.90;;;;;;5080266;28;20071;-35
2023/10/16 11:43:31;;;;;;;;;;;13.30;99.90;;;;;;5066837;28;20504;-34
2023/10/16 11:45:57;;;;;;;3.33;0.40;;;13.20;99.90;;;;;;5063955;28;19916;-34
2023/10/16 11:48:42;;;;;;;4.75;0.40;;;13.30;99.90;;;;;;5065390;28;20056;-34
2023/10/16 11:51:14;;;;;;;1.75;0.43;;;13.40;99.90;;;;;;5066139;28;20486;-34
2023/10/16 11:53:43;;;;;;;1.77;0.20;;;13.50;99.90;;;;;;5060674;28;20048;-35
2023/10/16 11:56:09;;;;;;;1.80;0.28;;;13.80;99.90;;;;;;5064481;28;20045;-35
2023/10/16 11:58:38;;;;;;;3.40;0.52;;;14.10;99.90;;;;;;5064988;28;20084;-34
2023/10/16 12:01:09;;;;;;;3.40;0.40;;;14.40;99.90;;;;;;5037825;28;20056;-34
2023/10/16 12:03:39;;;;;;;4.28;1.38;;;14.70;99.90;;;;;;5060621;28;20375;-36
2023/10/16 12:06:08;;;;;;;2.72;0.38;;;14.90;99.90;;;;;;5065567;28;20048;-34
2023/10/16 12:08:34;;;;;;;3.75;0.98;;;15.20;99.90;;;;;;5057341;28;20414;-34
2023/10/16 12:11:03;;;;;;;1.77;0.40;;;15.50;99.90;;;;;;5063781;28;20459;-34
2023/10/16 12:13:30;;;;;;;3.40;0.45;;;15.80;99.90;;;;;;5043591;28;20499;-35
2023/10/16 12:15:57;;;;;;;2.35;0.40;;;16.10;99.90;;;;;;5066370;28;20496;-35
2023/10/16 12:18:26;;;;;;;5.18;0.40;;;16.30;99.90;;;;;;5047824;28;20048;-36
2023/10/16 12:20:53;;;;;;;3.80;0.93;;;16.60;99.90;;;;;;5066143;28;20040;-35
2023/10/16 12:23:20;;;;;;;2.72;0.40;;;16.80;99.90;;;;;;5062333;28;20036;-35
2023/10/16 12:25:46;;;;;;;3.35;0.45;;;16.90;99.90;;;;;;5079465;28;20062;-35
2023/10/16 12:28:12;;;;;;;4.55;0.50;;;17.20;99.90;;;;;;5081689;28;20055;-35
2023/10/16 12:30:38;;;;;;;2.58;0.63;;;17.40;99.90;;;;;;5083070;28;20051;-35
2023/10/16 12:33:07;;;;;;;1.75;0.52;;;17.60;99.90;;;;;;5082223;28;20051;-35
2023/10/16 12:35:34;;;;;;;6.50;0.40;;;17.90;99.90;;;;;;5081378;28;20078;-35
2023/10/16 12:38:07;;;;;;;6.35;0.50;;;18.30;99.90;;;;;;5083258;28;20520;-52
2023/10/16 12:40:37;;;;;;;;;;;18.60;99.90;;;;;;5065953;28;20524;-35
2023/10/16 12:43:05;;;;;;;2.35;0.32;;;18.90;99.90;;;;;;5082218;28;19920;-35
2023/10/16 12:45:32;;;;;;;1.77;0.35;;;19.20;99.90;;;;;;5070996;28;20517;-35
2023/10/16 12:47:58;;;;;;;2.40;0.28;;;19.20;99.90;;;;;;5061363;28;20122;-35
2023/10/16 12:50:25;;;;;;;2.28;0.30;;;19.20;99.90;;;;;;5078059;28;20092;-36
2023/10/16 12:52:51;;;;;;;1.25;0.20;;;19.30;99.90;;;;;;5084079;28;20060;-34
2023/10/16 12:55:19;;;;;;;1.77;0.30;;;19.30;99.90;;;;;;5080205;28;20048;-34
2023/10/16 12:57:51;;;;;;;3.35;0.50;;;19.10;99.90;;;;;;5080106;28;20051;-35
2023/10/16 13:00:18;;;;;;;1.70;0.50;;;19.00;99.90;;;;;;5082600;28;20055;-35
2023/10/16 13:02:48;;;;;;;1.90;0.30;;;19.10;99.90;;;;;;5083838;28;20071;-33
2023/10/16 13:05:15;;;;;;;2.58;0.50;;;19.20;99.90;;;;;;5074440;28;20136;-35
2023/10/16 13:07:47;;;;;;;2.28;0.40;;;19.30;99.90;;;;;;5059831;28;20555;-35
2023/10/16 13:10:15;;;;;;;1.27;0.30;;;19.20;99.90;;;;;;5079114;28;20411;-35
2023/10/16 13:12:42;;;;;;;2.72;0.60;;;19.20;99.90;;;;;;5085477;28;20062;-37
2023/10/16 13:15:15;;;;;;;2.53;0.40;;;19.30;99.90;;;;;;5078186;28;20437;-32
2023/10/16 13:17:41;;;;;;;3.45;0.38;;;19.50;99.90;;;;;;5062159;28;20052;-32
2023/10/16 13:20:16;;;;;;;4.65;0.30;;;19.40;99.90;;;;;;5079155;28;20087;-35
2023/10/16 13:22:55;;;;;;;2.72;0.30;;;19.30;99.90;;;;;;5078643;28;20162;-35
2023/10/16 13:25:25;;;;;;;1.48;0.20;;;19.20;99.90;;;;;;5079384;28;20082;-35
2023/10/16 13:27:55;;;;;;;5.38;0.43;;;19.20;99.90;;;;;;5076127;28;20171;-35
2023/10/16 13:30:22;;;;;;;2.10;0.30;;;19.00;99.90;;;;;;5071651;28;20054;-48
2023/10/16 13:32:49;;;;;;;1.23;0.20;;;18.80;99.90;;;;;;5076737;28;20544;-33
2023/10/16 13:35:20;;;;;;;2.95;0.32;;;18.60;99.90;;;;;;5065222;28;20069;-33
2023/10/16 13:37:47;;;;;;;3.40;0.40;;;18.40;99.90;;;;;;5080968;28;20110;-33
2023/10/16 13:40:20;;;;;;;2.72;0.50;;;18.10;99.90;;;;;;5077827;28;20108;-33
2023/10/16 13:42:50;;;;;;;5.65;0.47;;;18.00;99.90;;;;;;5060977;28;20418;-33
2023/10/16 13:45:16;;;;;;;3.83;0.30;;;17.90;99.90;;;;;;5079377;28;20086;-32
2023/10/16 13:47:43;;;;;;;3.40;0.35;;;17.90;99.90;;;;;;5078333;28;20544;-33
2023/10/16 13:50:16;;;;;;;3.70;0.57;;;18.00;99.90;;;;;;5081135;28;20501;-35
2023/10/16 13:52:43;;;;;;;3.47;0.50;;;18.10;99.90;;;;;;5080339;28;20554;-39
2023/10/16 13:55:20;;;;;;;3.53;0.40;;;18.00;99.90;;;;;;5080903;28;20062;-39
2023/10/16 13:57:50;;;;;;;2.55;0.35;;;17.90;99.90;;;;;;5084659;28;20482;-36
2023/10/16 14:00:31;;;;;;;5.07;0.32;;;17.70;99.90;;;;;;5079450;28;20063;-35
2023/10/16 14:03:16;;;;;;;1.20;0.40;;;17.60;99.90;;;;;;5077102;28;20048;-35
2023/10/16 14:05:47;;;;;;;1.88;0.50;;;17.50;99.90;;;;;;5073431;28;20684;-36
2023/10/16 14:08:14;;;;;;;3.50;0.40;;;17.40;99.90;;;;;;5083473;28;20567;-35
2023/10/16 14:10:57;;;;;;;4.60;0.43;;;17.20;99.90;;;;;;5081748;28;20138;-35
2023/10/16 14:13:27;;;;;;;1.20;0.40;;;17.10;99.90;;;;;;5084380;28;20567;-35
2023/10/16 14:15:57;;;;;;;2.17;0.30;;;17.00;99.90;;;;;;5081847;28;20413;-35
2023/10/16 14:18:29;;;;;;;1.83;0.30;;;16.80;99.90;;;;;;5084780;28;20066;-35
2023/10/16 14:20:56;;;;;;;2.90;0.60;;;16.80;99.90;;;;;;5085651;28;20055;-36
2023/10/16 14:23:32;;;;;;;3.72;0.40;;;16.90;99.90;;;;;;5079569;28;20283;-35
2023/10/16 14:25:58;;;;;;;6.43;0.57;;;17.00;99.90;;;;;;5066255;28;20064;-35
2023/10/16 14:31:28;;;;;;;4.40;0.50;;;17.20;99.90;;;;;;4982494;28;20085;-36
2023/10/16 14:33:54;;;;;;;4.43;0.50;;;17.20;99.90;;;;;;5052953;28;20071;-36
2023/10/16 14:36:24;;;;;;;2.42;0.40;;;17.20;99.90;;;;;;5065174;28;20052;-36
2023/10/16 14:38:51;;;;;;;3.67;0.82;;;17.30;99.90;;;;;;5048297;28;20098;-36
2023/10/16 14:41:17;;;;;;;3.28;0.65;;;17.30;99.90;;;;;;5065032;28;20418;-36
2023/10/16 14:43:46;;;;;;;3.90;0.77;;;17.50;99.90;;;;;;5068022;28;20594;-36
2023/10/16 14:46:12;;;;;;;6.50;0.85;;;17.70;99.90;;;;;;5044127;28;20048;-35
2023/10/16 14:48:44;;;;;;;2.55;0.43;;;17.90;99.90;;;;;;5065747;28;20053;-40
2023/10/16 14:51:15;;;;;;;4.15;0.50;;;18.10;99.90;;;;;;5063578;28;20051;-36
2023/10/16 14:53:46;;;;;;;2.85;0.70;;;18.40;99.90;;;;;;5064831;28;20047;-36
2023/10/16 14:56:21;;;;;;;1.60;0.38;;;18.60;99.90;;;;;;5066098;28;20394;-36